createdAt,value
2023-04-11T00:00:48.426Z,907.91
2023-04-11T00:01:48.397Z,908.40
2023-04-11T00:02:48.541Z,908.05
2023-04-11T00:03:48.604Z,906.95
2023-04-11T00:04:48.374Z,907.29
2023-04-11T00:05:48.354Z,907.71
2023-04-11T00:06:48.318Z,907.73
2023-04-11T00:07:48.292Z,907.18
2023-04-11T00:08:48.294Z,907.05
2023-04-11T00:09:48.283Z,906.49
2023-04-11T00:10:48.311Z,907.42
2023-04-11T00:11:48.274Z,907.90
2023-04-11T00:12:48.256Z,908.45
2023-04-11T00:13:48.249Z,908.65
2023-04-11T00:14:48.247Z,909.08
2023-04-11T00:15:48.236Z,908.67
2023-04-11T00:16:48.295Z,908.16
2023-04-11T00:17:48.278Z,906.58
2023-04-11T00:18:48.189Z,905.42
2023-04-11T00:19:48.186Z,904.32
2023-04-11T00:20:48.178Z,903.54
2023-04-11T00:21:48.156Z,904.23
2023-04-11T00:22:48.150Z,904.66
2023-04-11T00:23:48.127Z,905.53
2023-04-11T00:24:48.114Z,905.68
2023-04-11T00:25:48.108Z,906.26
2023-04-11T00:26:48.086Z,905.97
2023-04-11T00:27:48.070Z,906.50
2023-04-11T00:28:48.096Z,905.60
2023-04-11T00:29:48.074Z,905.05
2023-04-11T00:30:48.064Z,905.02
2023-04-11T00:31:48.079Z,905.27
2023-04-11T00:32:48.029Z,904.79
2023-04-11T00:33:48.003Z,905.38
2023-04-11T00:34:48.032Z,905.66
2023-04-11T00:35:48.051Z,906.10
2023-04-11T00:36:48.042Z,906.77
2023-04-11T00:37:47.966Z,907.08
2023-04-11T00:38:47.946Z,907.36
2023-04-11T00:39:47.936Z,907.46
2023-04-11T00:40:47.950Z,907.13
2023-04-11T00:41:47.921Z,908.03
2023-04-11T00:42:47.902Z,908.42
2023-04-11T00:43:47.884Z,908.27
2023-04-11T00:44:47.903Z,907.68
2023-04-11T00:45:47.930Z,906.48
2023-04-11T00:46:47.876Z,905.65
2023-04-11T00:47:47.898Z,905.42
2023-04-11T00:48:47.834Z,905.03
2023-04-11T00:49:47.841Z,904.84
2023-04-11T00:50:47.822Z,904.68
2023-04-11T00:51:47.808Z,904.76
2023-04-11T00:52:47.788Z,906.24
2023-04-11T00:53:47.790Z,907.96
2023-04-11T00:54:47.777Z,907.51
2023-04-11T00:55:47.759Z,906.85
2023-04-11T00:56:47.740Z,906.97
2023-04-11T00:57:47.730Z,907.36
2023-04-11T00:58:47.717Z,906.59
2023-04-11T00:59:47.784Z,904.86
2023-04-11T01:00:47.729Z,905.06
2023-04-11T01:01:47.766Z,903.16
2023-04-11T01:02:47.742Z,901.31
2023-04-11T01:03:47.816Z,900.82
2023-04-11T01:04:47.657Z,901.30
2023-04-11T01:05:47.666Z,901.33
2023-04-11T01:06:47.625Z,900.94
2023-04-11T01:07:47.624Z,901.02
2023-04-11T01:08:47.622Z,902.01
2023-04-11T01:09:47.608Z,903.42
2023-04-11T01:10:47.605Z,904.18
2023-04-11T01:11:47.569Z,904.70
2023-04-11T01:12:47.595Z,906.11
2023-04-11T01:13:47.550Z,907.96
2023-04-11T01:14:47.558Z,909.75
2023-04-11T01:15:47.554Z,911.43
2023-04-11T01:16:47.626Z,912.64
2023-04-11T01:17:47.591Z,913.27
2023-04-11T01:18:47.494Z,912.89
2023-04-11T01:19:47.482Z,912.76
2023-04-11T01:20:47.483Z,914.33
2023-04-11T01:21:47.464Z,915.58
2023-04-11T01:22:47.469Z,915.21
2023-04-11T01:23:47.507Z,914.86
2023-04-11T01:24:47.425Z,915.52
2023-04-11T01:25:47.497Z,917.10
2023-04-11T01:26:47.729Z,917.62
2023-04-11T01:27:47.444Z,917.58
2023-04-11T01:28:47.764Z,918.45
2023-04-11T01:29:47.358Z,920.09
2023-04-11T01:30:47.395Z,919.79
2023-04-11T01:31:47.349Z,921.10
2023-04-11T01:32:47.375Z,921.23
2023-04-11T01:33:47.350Z,920.39
2023-04-11T01:34:47.315Z,920.18
2023-04-11T01:35:47.342Z,921.14
2023-04-11T01:36:47.491Z,921.69
2023-04-11T01:37:47.681Z,921.88
2023-04-11T01:38:47.386Z,923.16
2023-04-11T01:39:47.714Z,922.98
2023-04-11T01:40:47.361Z,924.22
2023-04-11T01:41:49.056Z,925.92
2023-04-11T01:42:47.233Z,927.17
2023-04-11T01:43:47.570Z,926.93
2023-04-11T01:44:47.562Z,926.87
2023-04-11T01:45:47.516Z,927.41
2023-04-11T01:46:47.577Z,928.96
2023-04-11T01:47:49.007Z,928.57
2023-04-11T01:48:47.231Z,927.17
2023-04-11T01:49:47.130Z,926.71
2023-04-11T01:50:47.139Z,927.29
2023-04-11T01:51:47.102Z,926.82
2023-04-11T01:52:47.099Z,925.67
2023-04-11T01:53:47.086Z,924.84
2023-04-11T01:54:47.088Z,923.83
2023-04-11T01:55:47.088Z,923.41
2023-04-11T01:56:47.073Z,922.88
2023-04-11T01:57:47.074Z,921.36
2023-04-11T01:58:47.038Z,921.23
2023-04-11T01:59:47.021Z,920.07
2023-04-11T02:00:47.034Z,920.48
2023-04-11T02:01:47.037Z,920.54
2023-04-11T02:02:47.149Z,921.52
2023-04-11T02:03:47.082Z,921.98
2023-04-11T02:04:46.959Z,922.87
2023-04-11T02:05:46.976Z,922.97
2023-04-11T02:06:47.108Z,922.24
2023-04-11T02:07:47.325Z,921.44
2023-04-11T02:08:49.875Z,918.57
2023-04-11T02:09:47.345Z,917.44
2023-04-11T02:10:49.704Z,916.59
2023-04-11T02:11:46.884Z,913.81
2023-04-11T02:12:46.870Z,912.33
2023-04-11T02:13:46.874Z,912.44
2023-04-11T02:14:46.847Z,912.45
2023-04-11T02:15:46.986Z,912.61
2023-04-11T02:16:46.830Z,911.48
2023-04-11T02:17:46.851Z,912.07
2023-04-11T02:18:46.841Z,911.87
2023-04-11T02:19:46.790Z,912.53
2023-04-11T02:20:46.797Z,912.13
2023-04-11T02:21:46.791Z,912.71
2023-04-11T02:22:46.759Z,913.77
2023-04-11T02:23:46.780Z,915.64
2023-04-11T02:24:46.744Z,917.50
2023-04-11T02:25:46.846Z,918.15
2023-04-11T02:26:46.726Z,919.42
2023-04-11T02:27:47.017Z,920.38
2023-04-11T02:28:46.696Z,921.60
2023-04-11T02:29:46.697Z,922.82
2023-04-11T02:30:46.769Z,922.49
2023-04-11T02:31:46.803Z,921.05
2023-04-11T02:32:46.776Z,918.37
2023-04-11T02:33:46.653Z,916.43
2023-04-11T02:34:46.636Z,912.74
2023-04-11T02:35:46.685Z,911.17
2023-04-11T02:36:47.152Z,911.65
2023-04-11T02:37:46.996Z,911.92
2023-04-11T02:38:46.977Z,913.08
2023-04-11T02:39:46.940Z,911.89
2023-04-11T02:40:46.906Z,911.13
2023-04-11T02:41:46.557Z,911.20
2023-04-11T02:42:46.544Z,911.67
2023-04-11T02:43:46.531Z,911.80
2023-04-11T02:44:46.541Z,912.89
2023-04-11T02:45:46.586Z,914.45
2023-04-11T02:46:46.582Z,916.11
2023-04-11T02:47:46.565Z,917.67
2023-04-11T02:48:46.493Z,917.14
2023-04-11T02:49:46.468Z,918.12
2023-04-11T02:50:46.481Z,919.53
2023-04-11T02:51:46.451Z,919.09
2023-04-11T02:52:47.861Z,915.83
2023-04-11T02:53:46.423Z,913.45
2023-04-11T02:54:46.411Z,911.28
2023-04-11T02:55:46.465Z,909.64
2023-04-11T02:56:46.390Z,908.73
2023-04-11T02:57:46.399Z,908.56
2023-04-11T02:58:46.406Z,907.85
2023-04-11T02:59:46.376Z,907.71
2023-04-11T03:00:46.355Z,908.79
2023-04-11T03:01:46.397Z,909.99
2023-04-11T03:02:46.415Z,912.94
2023-04-11T03:03:46.376Z,915.23
2023-04-11T03:04:46.295Z,916.60
2023-04-11T03:05:46.294Z,917.21
2023-04-11T03:06:46.295Z,917.96
2023-04-11T03:07:46.284Z,918.58
2023-04-11T03:08:46.256Z,918.70
2023-04-11T03:09:46.252Z,916.93
2023-04-11T03:10:46.251Z,917.08
2023-04-11T03:11:47.448Z,918.12
2023-04-11T03:12:46.208Z,918.28
2023-04-11T03:13:46.208Z,918.46
2023-04-11T03:14:46.212Z,917.53
2023-04-11T03:15:46.223Z,915.64
2023-04-11T03:16:46.175Z,914.79
2023-04-11T03:17:46.199Z,913.37
2023-04-11T03:18:46.138Z,913.14
2023-04-11T03:19:46.161Z,914.16
2023-04-11T03:20:46.131Z,915.61
2023-04-11T03:21:46.111Z,914.87
2023-04-11T03:22:46.096Z,913.91
2023-04-11T03:23:46.085Z,912.61
2023-04-11T03:24:46.142Z,911.42
2023-04-11T03:25:46.461Z,911.64
2023-04-11T03:26:46.081Z,913.13
2023-04-11T03:27:46.059Z,915.29
2023-04-11T03:28:46.086Z,917.26
2023-04-11T03:29:46.023Z,919.04
2023-04-11T03:30:46.046Z,920.11
2023-04-11T03:31:46.564Z,919.79
2023-04-11T03:32:46.469Z,919.51
2023-04-11T03:33:48.919Z,919.91
2023-04-11T03:34:46.409Z,920.09
2023-04-11T03:35:46.416Z,920.50
2023-04-11T03:36:46.304Z,920.77
2023-04-11T03:37:46.283Z,921.37
2023-04-11T03:38:45.984Z,921.93
2023-04-11T03:39:46.250Z,922.71
2023-04-11T03:40:46.278Z,924.33
2023-04-11T03:41:45.883Z,927.60
2023-04-11T03:42:45.903Z,927.70
2023-04-11T03:43:45.873Z,928.32
2023-04-11T03:44:45.874Z,929.07
2023-04-11T03:45:45.902Z,928.92
2023-04-11T03:46:45.876Z,929.91
2023-04-11T03:47:45.871Z,929.61
2023-04-11T03:48:45.830Z,926.39
2023-04-11T03:49:45.811Z,925.35
2023-04-11T03:50:46.001Z,925.64
2023-04-11T03:51:45.774Z,926.89
2023-04-11T03:52:45.794Z,926.24
2023-04-11T03:53:45.760Z,925.93
2023-04-11T03:54:47.680Z,925.79
2023-04-11T03:55:45.785Z,925.41
2023-04-11T03:56:45.783Z,924.11
2023-04-11T03:57:45.713Z,922.91
2023-04-11T03:58:45.698Z,923.04
2023-04-11T03:59:45.695Z,923.26
2023-04-11T04:00:45.975Z,922.94
2023-04-11T04:01:45.758Z,921.82
2023-04-11T04:02:45.843Z,921.48
2023-04-11T04:03:45.940Z,922.90
2023-04-11T04:04:45.792Z,922.49
2023-04-11T04:05:45.653Z,922.72
2023-04-11T04:06:45.610Z,923.20
2023-04-11T04:07:45.612Z,923.44
2023-04-11T04:08:45.597Z,923.08
2023-04-11T04:09:45.585Z,922.64
2023-04-11T04:10:45.599Z,921.64
2023-04-11T04:11:45.591Z,921.61
2023-04-11T04:12:45.542Z,921.76
2023-04-11T04:13:45.549Z,922.20
2023-04-11T04:14:45.574Z,922.82
2023-04-11T04:15:45.568Z,922.24
2023-04-11T04:16:45.516Z,923.09
2023-04-11T04:17:45.828Z,924.86
2023-04-11T04:18:45.491Z,925.25
2023-04-11T04:19:45.481Z,926.14
2023-04-11T04:20:45.494Z,928.02
2023-04-11T04:21:45.471Z,928.39
2023-04-11T04:22:45.450Z,928.96
2023-04-11T04:23:45.435Z,930.98
2023-04-11T04:24:48.162Z,931.13
2023-04-11T04:25:45.425Z,929.82
2023-04-11T04:26:45.406Z,927.73
2023-04-11T04:27:45.378Z,927.01
2023-04-11T04:28:45.372Z,925.23
2023-04-11T04:29:45.353Z,925.14
2023-04-11T04:30:45.361Z,925.02
2023-04-11T04:31:45.417Z,923.90
2023-04-11T04:32:45.683Z,923.54
2023-04-11T04:33:45.309Z,923.62
2023-04-11T04:34:45.335Z,924.15
2023-04-11T04:35:45.648Z,923.65
2023-04-11T04:36:45.295Z,924.03
2023-04-11T04:37:45.380Z,924.12
2023-04-11T04:38:45.271Z,923.38
2023-04-11T04:39:45.263Z,921.95
2023-04-11T04:40:45.277Z,920.90
2023-04-11T04:41:45.226Z,921.18
2023-04-11T04:42:45.263Z,922.71
2023-04-11T04:43:45.210Z,923.64
2023-04-11T04:44:45.199Z,924.87
2023-04-11T04:45:45.263Z,925.18
2023-04-11T04:46:45.200Z,926.16
2023-04-11T04:47:45.165Z,926.30
2023-04-11T04:48:52.445Z,927.68
2023-04-11T04:49:52.652Z,928.71
2023-04-11T04:50:45.137Z,928.20
2023-04-11T04:51:52.127Z,926.51
2023-04-11T04:52:52.131Z,924.19
2023-04-11T04:53:45.388Z,923.65
2023-04-11T04:54:45.083Z,923.49
2023-04-11T04:55:45.101Z,924.35
2023-04-11T04:56:45.090Z,924.88
2023-04-11T04:57:45.061Z,924.97
2023-04-11T04:58:45.073Z,924.98
2023-04-11T04:59:45.033Z,924.78
2023-04-11T05:00:45.084Z,924.68
2023-04-11T05:01:45.079Z,923.53
2023-04-11T05:02:45.098Z,925.13
2023-04-11T05:03:45.110Z,924.66
2023-04-11T05:04:44.961Z,924.54
2023-04-11T05:05:44.998Z,927.37
2023-04-11T05:06:44.942Z,929.32
2023-04-11T05:07:44.957Z,930.33
2023-04-11T05:08:44.927Z,930.50
2023-04-11T05:09:44.944Z,932.12
2023-04-11T05:10:44.957Z,933.44
2023-04-11T05:11:44.912Z,932.33
2023-04-11T05:12:44.900Z,931.68
2023-04-11T05:13:44.925Z,931.59
2023-04-11T05:14:44.869Z,933.41
2023-04-11T05:15:44.854Z,936.41
2023-04-11T05:16:45.019Z,936.78
2023-04-11T05:17:44.900Z,935.85
2023-04-11T05:18:44.838Z,936.53
2023-04-11T05:19:44.805Z,935.60
2023-04-11T05:20:44.870Z,936.95
2023-04-11T05:21:44.801Z,938.34
2023-04-11T05:22:44.777Z,939.04
2023-04-11T05:23:44.798Z,937.61
2023-04-11T05:24:45.048Z,937.25
2023-04-11T05:25:44.771Z,938.25
2023-04-11T05:26:44.730Z,938.82
2023-04-11T05:27:44.734Z,942.02
2023-04-11T05:28:44.702Z,945.66
2023-04-11T05:29:44.709Z,948.01
2023-04-11T05:30:44.765Z,945.37
2023-04-11T05:31:45.174Z,940.26
2023-04-11T05:32:45.174Z,937.44
2023-04-11T05:33:44.664Z,936.48
2023-04-11T05:34:45.025Z,937.08
2023-04-11T05:35:44.668Z,936.55
2023-04-11T05:36:44.625Z,936.61
2023-04-11T05:37:45.076Z,936.99
2023-04-11T05:38:44.634Z,935.52
2023-04-11T05:39:44.579Z,932.59
2023-04-11T05:40:44.612Z,933.33
2023-04-11T05:41:44.560Z,936.39
2023-04-11T05:42:44.565Z,939.48
2023-04-11T05:43:44.540Z,941.65
2023-04-11T05:44:44.525Z,941.83
2023-04-11T05:45:44.631Z,943.22
2023-04-11T05:46:47.277Z,943.72
2023-04-11T05:47:44.910Z,941.98
2023-04-11T05:48:44.485Z,943.19
2023-04-11T05:49:44.494Z,944.04
2023-04-11T05:50:44.810Z,944.07
2023-04-11T05:51:44.506Z,942.93
2023-04-11T05:52:44.454Z,942.09
2023-04-11T05:53:44.444Z,943.54
2023-04-11T05:54:44.485Z,943.23
2023-04-11T05:55:44.473Z,945.58
2023-04-11T05:56:44.414Z,949.46
2023-04-11T05:57:44.392Z,949.73
2023-04-11T05:58:44.445Z,946.45
2023-04-11T05:59:44.374Z,945.69
2023-04-11T06:00:44.362Z,942.02
2023-04-11T06:01:44.426Z,937.16
2023-04-11T06:02:44.664Z,936.55
2023-04-11T06:03:44.460Z,942.64
2023-04-11T06:04:44.437Z,952.64
2023-04-11T06:05:44.334Z,956.11
2023-04-11T06:06:44.313Z,961.55
2023-04-11T06:07:44.262Z,970.56
2023-04-11T06:08:44.252Z,972.82
2023-04-11T06:09:44.589Z,971.73
2023-04-11T06:10:44.259Z,968.99
2023-04-11T06:11:44.224Z,966.48
2023-04-11T06:12:44.225Z,969.90
2023-04-11T06:13:44.188Z,975.54
2023-04-11T06:14:44.223Z,975.24
2023-04-11T06:15:44.208Z,968.05
2023-04-11T06:16:44.168Z,960.40
2023-04-11T06:17:44.237Z,956.12
2023-04-11T06:18:44.146Z,954.58
2023-04-11T06:19:44.118Z,945.57
2023-04-11T06:20:44.156Z,943.17
2023-04-11T06:21:44.130Z,953.58
2023-04-11T06:22:44.107Z,964.61
2023-04-11T06:23:44.091Z,977.18
2023-04-11T06:24:44.072Z,990.13
2023-04-11T06:25:44.082Z,1000.78
2023-04-11T06:26:44.073Z,1009.20
2023-04-11T06:27:44.033Z,1008.92
2023-04-11T06:28:44.149Z,1002.45
2023-04-11T06:29:44.009Z,998.62
2023-04-11T06:30:44.036Z,993.36
2023-04-11T06:31:44.027Z,994.25
2023-04-11T06:32:44.021Z,985.98
2023-04-11T06:33:43.973Z,979.43
2023-04-11T06:34:43.980Z,974.89
2023-04-11T06:35:44.027Z,979.47
2023-04-11T06:36:43.948Z,981.12
2023-04-11T06:37:43.912Z,985.12
2023-04-11T06:38:43.908Z,985.88
2023-04-11T06:39:50.921Z,990.02
2023-04-11T06:40:50.900Z,985.40
2023-04-11T06:41:50.895Z,983.18
2023-04-11T06:42:50.924Z,993.27
2023-04-11T06:43:51.137Z,988.59
2023-04-11T06:44:50.834Z,985.37
2023-04-11T06:45:43.845Z,988.10
2023-04-11T06:46:43.880Z,989.43
2023-04-11T06:47:43.826Z,993.40
2023-04-11T06:48:43.801Z,990.07
2023-04-11T06:49:43.784Z,994.00
2023-04-11T06:50:43.860Z,994.06
2023-04-11T06:51:43.757Z,987.74
2023-04-11T06:52:43.777Z,973.66
2023-04-11T06:53:43.760Z,953.91
2023-04-11T06:54:43.722Z,950.02
2023-04-11T06:55:43.761Z,957.33
2023-04-11T06:56:43.731Z,964.44
2023-04-11T06:57:43.698Z,950.35
2023-04-11T06:58:44.101Z,931.73
2023-04-11T06:59:44.017Z,929.95
2023-04-11T07:00:44.031Z,935.75
2023-04-11T07:01:45.697Z,934.88
2023-04-11T07:02:44.215Z,934.10
2023-04-11T07:03:46.588Z,938.14
2023-04-11T07:04:43.766Z,941.39
2023-04-11T07:05:43.980Z,934.33
2023-04-11T07:06:43.886Z,925.31
2023-04-11T07:07:43.977Z,928.82
2023-04-11T07:08:43.575Z,943.90
2023-04-11T07:09:43.552Z,966.05
2023-04-11T07:10:43.549Z,985.14
2023-04-11T07:11:43.537Z,980.27
2023-04-11T07:12:43.531Z,980.54
2023-04-11T07:13:43.554Z,957.36
2023-04-11T07:14:43.505Z,936.19
2023-04-11T07:15:44.212Z,941.76
2023-04-11T07:16:44.010Z,974.67
2023-04-11T07:17:43.908Z,998.79
2023-04-11T07:18:46.368Z,997.77
2023-04-11T07:19:43.876Z,981.44
2023-04-11T07:20:43.468Z,966.75
2023-04-11T07:21:43.422Z,968.70
2023-04-11T07:22:43.745Z,968.50
2023-04-11T07:23:43.417Z,979.29
2023-04-11T07:24:43.381Z,997.59
2023-04-11T07:25:43.391Z,1012.01
2023-04-11T07:26:43.420Z,1004.97
2023-04-11T07:27:43.504Z,994.28
2023-04-11T07:28:43.346Z,985.12
2023-04-11T07:29:43.395Z,990.74
2023-04-11T07:30:43.369Z,1003.14
2023-04-11T07:31:43.313Z,1012.50
2023-04-11T07:32:43.288Z,1012.77
2023-04-11T07:33:43.313Z,1014.78
2023-04-11T07:34:43.273Z,1010.84
2023-04-11T07:35:43.303Z,1008.90
2023-04-11T07:36:43.259Z,1031.47
2023-04-11T07:37:43.243Z,1027.32
2023-04-11T07:38:43.269Z,1027.15
2023-04-11T07:39:43.219Z,1018.63
2023-04-11T07:40:43.221Z,1016.47
2023-04-11T07:41:43.214Z,1020.64
2023-04-11T07:42:43.186Z,1002.41
2023-04-11T07:43:43.323Z,997.25
2023-04-11T07:44:43.182Z,995.53
2023-04-11T07:45:43.212Z,975.89
2023-04-11T07:46:43.140Z,958.29
2023-04-11T07:47:43.144Z,946.63
2023-04-11T07:48:43.146Z,943.95
2023-04-11T07:49:43.115Z,953.69
2023-04-11T07:50:43.093Z,968.09
2023-04-11T07:51:43.087Z,972.47
2023-04-11T07:52:43.083Z,967.77
2023-04-11T07:53:43.043Z,958.66
2023-04-11T07:54:43.043Z,960.19
2023-04-11T07:55:43.366Z,970.14
2023-04-11T07:56:43.036Z,976.03
2023-04-11T07:57:43.001Z,979.93
2023-04-11T07:58:43.014Z,982.62
2023-04-11T07:59:43.015Z,1021.95
2023-04-11T08:00:42.980Z,1017.90
2023-04-11T08:01:42.987Z,997.65
2023-04-11T08:02:43.069Z,1013.90
2023-04-11T08:03:43.083Z,1014.90
2023-04-11T08:04:43.031Z,1020.53
2023-04-11T08:05:42.911Z,1026.18
2023-04-11T08:06:42.939Z,1029.39
2023-04-11T08:07:42.882Z,1031.61
2023-04-11T08:08:42.887Z,1015.07
2023-04-11T08:09:43.264Z,997.61
2023-04-11T08:10:43.196Z,1023.19
2023-04-11T08:11:43.208Z,987.86
2023-04-11T08:12:42.839Z,967.58
2023-04-11T08:13:43.249Z,947.03
2023-04-11T08:14:42.832Z,944.37
2023-04-11T08:15:43.149Z,961.50
2023-04-11T08:16:42.843Z,988.33
2023-04-11T08:17:43.153Z,1002.74
2023-04-11T08:18:42.906Z,1000.30
2023-04-11T08:19:42.778Z,978.96
2023-04-11T08:20:42.753Z,959.87
2023-04-11T08:21:42.794Z,963.46
2023-04-11T08:22:42.726Z,987.41
2023-04-11T08:23:42.942Z,998.00
2023-04-11T08:24:42.728Z,997.30
2023-04-11T08:25:42.714Z,997.17
2023-04-11T08:26:42.718Z,999.88
2023-04-11T08:27:42.677Z,1003.09
2023-04-11T08:28:43.542Z,1001.86
2023-04-11T08:29:42.706Z,994.77
2023-04-11T08:30:42.744Z,1020.06
2023-04-11T08:31:42.646Z,1010.85
2023-04-11T08:32:52.428Z,1005.03
2023-04-11T08:33:42.619Z,1004.34
2023-04-11T08:34:49.657Z,1004.16
2023-04-11T08:35:49.643Z,1027.58
2023-04-11T08:36:42.566Z,1016.35
2023-04-11T08:37:49.607Z,987.48
2023-04-11T08:38:42.546Z,953.41
2023-04-11T08:39:42.565Z,1024.00
2023-04-11T08:40:42.520Z,1017.85
2023-04-11T08:41:42.505Z,1020.20
2023-04-11T08:42:42.531Z,1013.13
2023-04-11T08:43:42.532Z,940.41
2023-04-11T08:44:42.525Z,998.34
2023-04-11T08:45:42.532Z,1019.79
2023-04-11T08:46:42.480Z,983.04
2023-04-11T08:47:45.249Z,968.93
2023-04-11T08:48:42.450Z,973.86
2023-04-11T08:49:42.458Z,903.82
2023-04-11T08:50:42.427Z,911.47
2023-04-11T08:51:42.419Z,1007.40
2023-04-11T08:52:44.587Z,1011.55
2023-04-11T08:53:42.397Z,1016.00
2023-04-11T08:54:42.415Z,1003.95
2023-04-11T08:55:42.370Z,955.64
2023-04-11T08:56:42.332Z,963.61
2023-04-11T08:57:42.359Z,975.52
2023-04-11T08:58:43.615Z,1020.65
2023-04-11T08:59:46.593Z,1021.72
2023-04-11T09:00:43.098Z,1009.49
2023-04-11T09:01:43.648Z,1022.27
2023-04-11T09:02:42.351Z,1018.70
2023-04-11T09:03:42.371Z,1016.22
2023-04-11T09:04:42.315Z,1020.70
2023-04-11T09:05:42.272Z,1024.82
2023-04-11T09:06:42.248Z,1025.70
2023-04-11T09:07:43.324Z,1023.15
2023-04-11T09:08:42.232Z,1020.26
2023-04-11T09:09:42.198Z,965.47
2023-04-11T09:10:42.193Z,960.33
2023-04-11T09:11:42.369Z,1015.17
2023-04-11T09:12:42.201Z,1017.10
2023-04-11T09:13:42.293Z,1025.51
2023-04-11T09:14:42.329Z,997.23
2023-04-11T09:15:42.211Z,1031.71
2023-04-11T09:16:42.130Z,998.61
2023-04-11T09:17:42.218Z,997.52
2023-04-11T09:18:42.216Z,996.32
2023-04-11T09:19:42.176Z,1023.82
2023-04-11T09:20:42.086Z,997.55
2023-04-11T09:21:42.092Z,989.57
2023-04-11T09:22:43.138Z,1026.38
2023-04-11T09:23:42.082Z,1021.47
2023-04-11T09:24:43.231Z,1018.10
2023-04-11T09:25:42.030Z,1019.68
2023-04-11T09:26:42.018Z,964.38
2023-04-11T09:27:42.033Z,984.59
2023-04-11T09:28:41.995Z,1029.25
2023-04-11T09:29:42.002Z,1029.49
2023-04-11T09:30:41.992Z,967.60
2023-04-11T09:31:42.126Z,1014.11
2023-04-11T09:32:41.992Z,1000.85
2023-04-11T09:33:41.932Z,879.09
2023-04-11T09:34:42.620Z,901.57
2023-04-11T09:35:41.983Z,1011.34
2023-04-11T09:36:41.904Z,1008.05
2023-04-11T09:37:41.943Z,1002.87
2023-04-11T09:38:41.891Z,1000.17
2023-04-11T09:39:41.916Z,994.67
2023-04-11T09:40:41.859Z,993.12
2023-04-11T09:41:41.872Z,986.13
2023-04-11T09:42:41.864Z,982.45
2023-04-11T09:43:41.832Z,983.22
2023-04-11T09:44:43.562Z,976.78
2023-04-11T09:45:53.676Z,976.83
2023-04-11T09:46:42.854Z,986.61
2023-04-11T09:47:44.498Z,1001.41
2023-04-11T09:49:41.789Z,931.51
2023-04-11T09:50:41.742Z,1013.56
2023-04-11T09:51:41.796Z,1014.01
2023-04-11T09:52:41.733Z,1012.15
2023-04-11T09:53:41.727Z,1006.83
2023-04-11T09:54:41.748Z,900.38
2023-04-11T09:55:41.714Z,923.98
2023-04-11T09:56:41.675Z,1012.50
2023-04-11T09:57:41.719Z,918.78
2023-04-11T09:58:41.667Z,999.41
2023-04-11T09:59:41.726Z,995.16
2023-04-11T10:00:41.625Z,995.92
2023-04-11T10:01:41.794Z,973.34
2023-04-11T10:02:41.801Z,1008.25
2023-04-11T10:03:41.664Z,917.02
2023-04-11T10:04:41.730Z,1010.33
2023-04-11T10:05:41.617Z,1010.10
2023-04-11T10:06:41.567Z,1015.12
2023-04-11T10:07:41.575Z,1022.88
2023-04-11T10:08:41.560Z,1024.58
2023-04-11T10:09:41.581Z,1020.81
2023-04-11T10:10:41.516Z,1012.85
2023-04-11T10:11:41.497Z,1005.72
2023-04-11T10:12:41.508Z,996.82
2023-04-11T10:13:41.501Z,992.82
2023-04-11T10:14:41.490Z,996.08
2023-04-11T10:15:41.442Z,982.55
2023-04-11T10:16:41.500Z,972.64
2023-04-11T10:17:41.459Z,960.78
2023-04-11T10:18:41.442Z,960.16
2023-04-11T10:19:41.410Z,970.92
2023-04-11T10:20:41.409Z,983.71
2023-04-11T10:21:41.383Z,1002.91
2023-04-11T10:22:41.434Z,1015.20
2023-04-11T10:23:41.357Z,1016.15
2023-04-11T10:24:48.401Z,1014.61
2023-04-11T10:25:41.339Z,1012.96
2023-04-11T10:26:41.320Z,1011.46
2023-04-11T10:27:41.308Z,1014.36
2023-04-11T10:28:41.377Z,1007.87
2023-04-11T10:29:41.321Z,995.84
2023-04-11T10:30:41.279Z,987.79
2023-04-11T10:31:41.325Z,979.31
2023-04-11T10:32:41.282Z,975.59
2023-04-11T10:33:41.243Z,976.42
2023-04-11T10:34:41.282Z,974.12
2023-04-11T10:35:41.258Z,968.03
2023-04-11T10:36:41.216Z,940.73
2023-04-11T10:37:41.245Z,973.24
2023-04-11T10:38:41.308Z,981.48
2023-04-11T10:39:41.253Z,992.38
2023-04-11T10:40:41.176Z,999.77
2023-04-11T10:41:41.161Z,1000.73
2023-04-11T10:42:41.174Z,1001.26
2023-04-11T10:43:41.120Z,1004.52
2023-04-11T10:44:41.133Z,1014.43
2023-04-11T10:45:41.139Z,1026.55
2023-04-11T10:46:41.131Z,1033.06
2023-04-11T10:47:41.183Z,1033.45
2023-04-11T10:48:41.089Z,1035.68
2023-04-11T10:49:41.124Z,1035.03
2023-04-11T10:50:41.154Z,1030.41
2023-04-11T10:51:41.051Z,1003.73
2023-04-11T10:52:41.071Z,945.00
2023-04-11T10:53:41.037Z,1013.91
2023-04-11T10:54:41.032Z,930.70
2023-04-11T10:55:40.996Z,903.42
2023-04-11T10:56:41.040Z,962.17
2023-04-11T10:57:41.001Z,891.27
2023-04-11T10:58:43.649Z,1007.51
2023-04-11T10:59:40.980Z,1013.81
2023-04-11T11:00:40.955Z,1023.01
2023-04-11T11:01:48.971Z,1026.13
2023-04-11T11:02:42.338Z,1022.70
2023-04-11T11:03:41.101Z,1016.63
2023-04-11T11:04:41.282Z,1009.25
2023-04-11T11:05:41.499Z,1012.88
2023-04-11T11:06:47.447Z,1014.84
2023-04-11T11:07:41.847Z,1014.99
2023-04-11T11:08:40.891Z,1015.59
2023-04-11T11:09:40.890Z,1015.19
2023-04-11T11:10:40.905Z,1010.21
2023-04-11T11:11:40.821Z,1001.65
2023-04-11T11:12:40.795Z,997.67
2023-04-11T11:13:40.819Z,996.92
2023-04-11T11:14:40.828Z,998.77
2023-04-11T11:15:40.789Z,1003.07
2023-04-11T11:16:41.538Z,1002.08
2023-04-11T11:17:40.778Z,998.36
2023-04-11T11:18:40.733Z,997.08
2023-04-11T11:19:40.719Z,897.52
2023-04-11T11:20:40.754Z,933.05
2023-04-11T11:21:40.709Z,981.41
2023-04-11T11:22:40.689Z,1022.25
2023-04-11T11:23:40.666Z,939.34
2023-04-11T11:24:40.671Z,923.29
2023-04-11T11:25:40.663Z,897.91
2023-04-11T11:26:40.694Z,1004.16
2023-04-11T11:27:40.613Z,999.05
2023-04-11T11:28:40.636Z,998.33
2023-04-11T11:29:40.641Z,1005.55
2023-04-11T11:30:40.606Z,1009.49
2023-04-11T11:31:40.671Z,1004.82
2023-04-11T11:32:40.600Z,1013.61
2023-04-11T11:33:40.619Z,1016.13
2023-04-11T11:34:40.588Z,1014.82
2023-04-11T11:35:40.657Z,895.01
2023-04-11T11:36:40.526Z,869.57
2023-04-11T11:37:40.835Z,845.38
2023-04-11T11:38:40.568Z,995.65
2023-04-11T11:39:40.497Z,992.74
2023-04-11T11:40:40.559Z,959.86
2023-04-11T11:41:40.472Z,982.19
2023-04-11T11:42:40.482Z,977.22
2023-04-11T11:43:40.433Z,968.11
2023-04-11T11:44:40.534Z,968.29
2023-04-11T11:45:40.459Z,967.74
2023-04-11T11:46:40.684Z,966.22
2023-04-11T11:47:40.461Z,967.37
2023-04-11T11:48:40.391Z,976.52
2023-04-11T11:49:40.455Z,987.27
2023-04-11T11:50:40.406Z,994.24
2023-04-11T11:51:40.348Z,1003.68
2023-04-11T11:52:40.387Z,1005.25
2023-04-11T11:53:40.317Z,1005.49
2023-04-11T11:54:40.311Z,1011.53
2023-04-11T11:55:40.357Z,1012.97
2023-04-11T11:56:40.371Z,1013.10
2023-04-11T11:57:40.337Z,1016.86
2023-04-11T11:58:40.278Z,1017.68
2023-04-11T11:59:40.269Z,1014.59
2023-04-11T12:00:40.553Z,1011.71
2023-04-11T12:01:40.343Z,1011.01
2023-04-11T12:02:40.460Z,1016.59
2023-04-11T12:03:40.388Z,1018.84
2023-04-11T12:04:40.535Z,1019.77
2023-04-11T12:05:40.285Z,1015.88
2023-04-11T12:06:40.185Z,1012.55
2023-04-11T12:07:40.219Z,1014.11
2023-04-11T12:08:42.990Z,1013.34
2023-04-11T12:09:40.185Z,1014.63
2023-04-11T12:10:40.155Z,1015.73
2023-04-11T12:11:40.141Z,1016.13
2023-04-11T12:12:40.144Z,1017.31
2023-04-11T12:13:40.108Z,1016.93
2023-04-11T12:14:40.168Z,1019.07
2023-04-11T12:15:40.401Z,937.77
2023-04-11T12:16:40.069Z,919.57
2023-04-11T12:17:40.159Z,1016.71
2023-04-11T12:18:40.050Z,1010.26
2023-04-11T12:19:40.050Z,1008.82
2023-04-11T12:20:40.016Z,825.84
2023-04-11T12:21:43.916Z,1000.26
2023-04-11T12:22:39.987Z,1000.28
2023-04-11T12:23:40.015Z,1000.86
2023-04-11T12:24:39.981Z,997.68